sensor_id;sensor_type;location;lat;lon;timestamp;pressure;altitude;pressure_sealevel;temperature;humidity
7754;BME280;3921;42.266;23.122;2023-05-11T00:02:03;95676.88;;;12.27;68.42
7754;BME280;3921;42.266;23.122;2023-05-11T00:04:31;95773.91;;;12.74;68.91
7754;BME280;3921;42.266;23.122;2023-05-11T00:06:58;95401.47;;;10.65;68.54
7754;BME280;3921;42.266;23.122;2023-05-11T00:09:25;95825.56;;;13.19;68.86
7754;BME280;3921;42.266;23.122;2023-05-11T00:11:53;95729.53;;;12.58;69.19
7754;BME280;3921;42.266;23.122;2023-05-11T00:14:20;95840.72;;;13.16;69.38
7754;BME280;3921;42.266;23.122;2023-05-11T00:16:47;95700.34;;;12.32;69.22
7754;BME280;3921;42.266;23.122;2023-05-11T00:19:14;95544.28;;;11.31;69.08
7754;BME280;3921;42.266;23.122;2023-05-11T00:21:42;95400.75;;;10.48;69.13
7754;BME280;3921;42.266;23.122;2023-05-11T00:24:11;95600.22;;;11.60;69.77
7754;BME280;3921;42.266;23.122;2023-05-11T00:26:38;95680.31;;;12.20;69.11
7754;BME280;3921;42.266;23.122;2023-05-11T00:29:05;95833.25;;;13.09;68.53
7754;BME280;3921;42.266;23.122;2023-05-11T00:31:31;95492.56;;;10.95;69.03
7754;BME280;3921;42.266;23.122;2023-05-11T00:33:58;95837.53;;;13.02;69.06
7754;BME280;3921;42.266;23.122;2023-05-11T00:36:25;95725.53;;;12.32;69.40
7754;BME280;3921;42.266;23.122;2023-05-11T00:38:54;95702.19;;;12.15;69.15
7754;BME280;3921;42.266;23.122;2023-05-11T00:41:21;95836.72;;;12.97;69.06
7754;BME280;3921;42.266;23.122;2023-05-11T00:43:48;95691.50;;;11.88;68.35
7754;BME280;3921;42.266;23.122;2023-05-11T00:46:15;95561.16;;;11.12;68.76
7754;BME280;3921;42.266;23.122;2023-05-11T00:48:42;95860.34;;;12.87;69.00
7754;BME280;3921;42.266;23.122;2023-05-11T00:51:09;95827.59;;;12.85;68.66
7754;BME280;3921;42.266;23.122;2023-05-11T00:53:37;95832.69;;;12.81;68.20
7754;BME280;3921;42.266;23.122;2023-05-11T00:56:06;95823.44;;;12.78;68.55
7754;BME280;3921;42.266;23.122;2023-05-11T00:58:34;95656.38;;;11.70;68.48
7754;BME280;3921;42.266;23.122;2023-05-11T01:01:01;95832.03;;;12.57;68.28
7754;BME280;3921;42.266;23.122;2023-05-11T01:03:28;95613.00;;;11.37;68.10
7754;BME280;3921;42.266;23.122;2023-05-11T01:06:03;95735.78;;;12.14;68.47
7754;BME280;3921;42.266;23.122;2023-05-11T01:08:36;95638.06;;;11.53;68.56
7754;BME280;3921;42.266;23.122;2023-05-11T01:11:10;95607.19;;;11.23;68.34
7754;BME280;3921;42.266;23.122;2023-05-11T01:13:45;95507.84;;;10.67;67.72
7754;BME280;3921;42.266;23.122;2023-05-11T01:16:27;95410.16;;;10.09;67.81
7754;BME280;3921;42.266;23.122;2023-05-11T01:19:00;95615.53;;;11.33;67.66
7754;BME280;3921;42.266;23.122;2023-05-11T01:21:29;95600.53;;;11.16;67.81
7754;BME280;3921;42.266;23.122;2023-05-11T01:24:13;95815.38;;;12.41;67.12
7754;BME280;3921;42.266;23.122;2023-05-11T01:27:02;95878.25;;;12.58;67.71
7754;BME280;3921;42.266;23.122;2023-05-11T01:32:35;95375.25;;;9.63;67.52
7754;BME280;3921;42.266;23.122;2023-05-11T01:35:06;95834.63;;;12.48;67.70
7754;BME280;3921;42.266;23.122;2023-05-11T01:37:34;95736.84;;;11.84;67.41
7754;BME280;3921;42.266;23.122;2023-05-11T01:40:04;95807.06;;;12.25;67.57
7754;BME280;3921;42.266;23.122;2023-05-11T01:42:37;95698.44;;;11.53;67.38
7754;BME280;3921;42.266;23.122;2023-05-11T01:45:07;95884.22;;;12.46;67.20
7754;BME280;3921;42.266;23.122;2023-05-11T01:47:45;95708.50;;;11.50;66.40
7754;BME280;3921;42.266;23.122;2023-05-11T01:50:15;95669.28;;;11.20;67.23
7754;BME280;3921;42.266;23.122;2023-05-11T01:52:44;95861.66;;;12.28;67.49
7754;BME280;3921;42.266;23.122;2023-05-11T01:55:16;95732.72;;;11.67;68.01
7754;BME280;3921;42.266;23.122;2023-05-11T01:57:45;95729.34;;;11.72;67.83
7754;BME280;3921;42.266;23.122;2023-05-11T02:00:15;95684.22;;;11.41;66.93
7754;BME280;3921;42.266;23.122;2023-05-11T02:02:43;95836.44;;;12.31;67.23
7754;BME280;3921;42.266;23.122;2023-05-11T02:05:14;95728.56;;;11.62;67.77
7754;BME280;3921;42.266;23.122;2023-05-11T02:07:44;95727.72;;;11.66;67.96
7754;BME280;3921;42.266;23.122;2023-05-11T02:10:13;95578.19;;;10.73;67.80
7754;BME280;3921;42.266;23.122;2023-05-11T02:12:42;95687.59;;;11.41;67.96
7754;BME280;3921;42.266;23.122;2023-05-11T02:15:11;95605.78;;;10.81;67.46
7754;BME280;3921;42.266;23.122;2023-05-11T02:17:39;95657.50;;;11.23;67.57
7754;BME280;3921;42.266;23.122;2023-05-11T02:20:09;95625.78;;;10.99;67.22
7754;BME280;3921;42.266;23.122;2023-05-11T02:22:36;95743.59;;;11.76;67.28
7754;BME280;3921;42.266;23.122;2023-05-11T02:25:05;95832.25;;;12.30;67.38
7754;BME280;3921;42.266;23.122;2023-05-11T02:27:32;95673.38;;;11.36;67.45
7754;BME280;3921;42.266;23.122;2023-05-11T02:30:00;95756.97;;;11.87;67.60
7754;BME280;3921;42.266;23.122;2023-05-11T02:32:29;95751.97;;;11.76;66.96
7754;BME280;3921;42.266;23.122;2023-05-11T02:34:59;95732.69;;;11.72;67.01
7754;BME280;3921;42.266;23.122;2023-05-11T02:37:29;95723.47;;;11.73;66.96
7754;BME280;3921;42.266;23.122;2023-05-11T02:40:09;95747.75;;;11.84;67.24
7754;BME280;3921;42.266;23.122;2023-05-11T02:42:38;95832.22;;;12.31;66.87
7754;BME280;3921;42.266;23.122;2023-05-11T02:45:13;95782.97;;;11.93;67.14
7754;BME280;3921;42.266;23.122;2023-05-11T02:47:44;95788.75;;;12.05;66.94
7754;BME280;3921;42.266;23.122;2023-05-11T02:50:12;95723.59;;;11.53;66.83
7754;BME280;3921;42.266;23.122;2023-05-11T02:52:43;95775.38;;;11.96;66.69
7754;BME280;3921;42.266;23.122;2023-05-11T02:55:14;95782.19;;;11.75;66.82
7754;BME280;3921;42.266;23.122;2023-05-11T02:57:42;95726.16;;;11.48;67.10
7754;BME280;3921;42.266;23.122;2023-05-11T03:00:10;95795.59;;;11.87;67.60
7754;BME280;3921;42.266;23.122;2023-05-11T03:02:37;95726.97;;;11.46;67.78
7754;BME280;3921;42.266;23.122;2023-05-11T03:05:04;95738.75;;;11.40;67.90
7754;BME280;3921;42.266;23.122;2023-05-11T03:07:34;95758.84;;;11.50;67.76
7754;BME280;3921;42.266;23.122;2023-05-11T03:10:04;95704.50;;;11.10;67.83
7754;BME280;3921;42.266;23.122;2023-05-11T03:12:32;95803.16;;;11.74;67.89
7754;BME280;3921;42.266;23.122;2023-05-11T03:15:01;95832.44;;;12.01;68.01
7754;BME280;3921;42.266;23.122;2023-05-11T03:17:28;95739.56;;;11.47;68.06
7754;BME280;3921;42.266;23.122;2023-05-11T03:19:57;95760.44;;;11.58;68.07
7754;BME280;3921;42.266;23.122;2023-05-11T03:22:28;95737.06;;;11.39;67.89
7754;BME280;3921;42.266;23.122;2023-05-11T03:24:56;95659.34;;;10.92;68.45
7754;BME280;3921;42.266;23.122;2023-05-11T03:27:26;95653.50;;;10.90;68.27
7754;BME280;3921;42.266;23.122;2023-05-11T03:29:54;95758.00;;;11.46;68.01
7754;BME280;3921;42.266;23.122;2023-05-11T03:32:22;95847.53;;;12.05;67.47
7754;BME280;3921;42.266;23.122;2023-05-11T03:34:49;95590.88;;;10.44;67.84
7754;BME280;3921;42.266;23.122;2023-05-11T03:37:18;95825.72;;;11.96;67.75
7754;BME280;3921;42.266;23.122;2023-05-11T03:39:47;95567.50;;;10.08;68.17
7754;BME280;3921;42.266;23.122;2023-05-11T03:42:16;95757.16;;;11.46;68.55
7754;BME280;3921;42.266;23.122;2023-05-11T03:44:48;95458.91;;;9.53;68.31
7754;BME280;3921;42.266;23.122;2023-05-11T03:47:17;95597.59;;;10.33;68.50
7754;BME280;3921;42.266;23.122;2023-05-11T03:49:46;95675.28;;;10.91;68.69
7754;BME280;3921;42.266;23.122;2023-05-11T03:52:14;95719.59;;;11.10;69.04
7754;BME280;3921;42.266;23.122;2023-05-11T03:54:41;95720.44;;;11.14;68.69
7754;BME280;3921;42.266;23.122;2023-05-11T03:57:08;95753.06;;;11.31;68.96
7754;BME280;3921;42.266;23.122;2023-05-11T03:59:38;95840.91;;;11.89;68.78
7754;BME280;3921;42.266;23.122;2023-05-11T04:02:06;95835.84;;;11.93;68.59
7754;BME280;3921;42.266;23.122;2023-05-11T04:04:33;95837.53;;;11.93;68.04
7754;BME280;3921;42.266;23.122;2023-05-11T04:07:00;95737.16;;;11.23;68.81
7754;BME280;3921;42.266;23.122;2023-05-11T04:09:27;95738.03;;;11.15;68.61
7754;BME280;3921;42.266;23.122;2023-05-11T04:11:54;95749.72;;;11.26;68.29
7754;BME280;3921;42.266;23.122;2023-05-11T04:14:21;95542.38;;;10.08;68.81
7754;BME280;3921;42.266;23.122;2023-05-11T04:16:48;95605.09;;;10.37;68.54
7754;BME280;3921;42.266;23.122;2023-05-11T04:19:16;95844.25;;;11.86;68.75
7754;BME280;3921;42.266;23.122;2023-05-11T04:21:43;95858.53;;;11.84;68.78
7754;BME280;3921;42.266;23.122;2023-05-11T04:24:11;95600.97;;;10.17;68.54
7754;BME280;3921;42.266;23.122;2023-05-11T04:26:38;95672.81;;;10.71;68.58
7754;BME280;3921;42.266;23.122;2023-05-11T04:29:04;95751.44;;;11.14;68.74
7754;BME280;3921;42.266;23.122;2023-05-11T04:31:31;95692.13;;;10.64;69.13
7754;BME280;3921;42.266;23.122;2023-05-11T04:33:58;95561.69;;;9.94;68.86
7754;BME280;3921;42.266;23.122;2023-05-11T04:36:29;95867.00;;;11.62;69.04
7754;BME280;3921;42.266;23.122;2023-05-11T04:38:57;95597.66;;;9.98;69.08
7754;BME280;3921;42.266;23.122;2023-05-11T04:41:26;95885.41;;;11.68;68.96
7754;BME280;3921;42.266;23.122;2023-05-11T04:43:53;95795.03;;;11.16;69.72
7754;BME280;3921;42.266;23.122;2023-05-11T04:46:20;95569.25;;;9.70;68.92
7754;BME280;3921;42.266;23.122;2023-05-11T04:48:47;95786.69;;;11.07;69.20
7754;BME280;3921;42.266;23.122;2023-05-11T04:51:15;95858.63;;;11.55;69.25
7754;BME280;3921;42.266;23.122;2023-05-11T04:53:43;95770.72;;;11.11;69.53
7754;BME280;3921;42.266;23.122;2023-05-11T04:56:17;95737.28;;;10.87;68.54
7754;BME280;3921;42.266;23.122;2023-05-11T04:58:51;95847.72;;;11.55;68.93
7754;BME280;3921;42.266;23.122;2023-05-11T05:01:17;95774.91;;;11.15;68.70
7754;BME280;3921;42.266;23.122;2023-05-11T05:03:48;95718.97;;;10.50;68.40
7754;BME280;3921;42.266;23.122;2023-05-11T05:06:15;95648.66;;;10.40;68.50
7754;BME280;3921;42.266;23.122;2023-05-11T05:08:43;95781.59;;;11.17;68.32
7754;BME280;3921;42.266;23.122;2023-05-11T05:11:10;95835.19;;;11.39;69.04
7754;BME280;3921;42.266;23.122;2023-05-11T05:13:37;95596.81;;;9.96;68.72
7754;BME280;3921;42.266;23.122;2023-05-11T05:16:04;95784.13;;;11.11;68.54
7754;BME280;3921;42.266;23.122;2023-05-11T05:18:31;95846.09;;;11.41;68.51
7754;BME280;3921;42.266;23.122;2023-05-11T05:20:58;95680.47;;;10.44;67.96
7754;BME280;3921;42.266;23.122;2023-05-11T05:23:25;95814.31;;;11.19;68.78
7754;BME280;3921;42.266;23.122;2023-05-11T05:25:55;95797.56;;;11.06;69.24
7754;BME280;3921;42.266;23.122;2023-05-11T05:28:22;95776.69;;;10.84;68.90
7754;BME280;3921;42.266;23.122;2023-05-11T05:30:48;95608.53;;;9.94;69.01
7754;BME280;3921;42.266;23.122;2023-05-11T05:33:15;95574.25;;;9.73;69.21
7754;BME280;3921;42.266;23.122;2023-05-11T05:35:42;95866.25;;;11.37;69.21
7754;BME280;3921;42.266;23.122;2023-05-11T05:38:11;95856.16;;;11.38;68.78
7754;BME280;3921;42.266;23.122;2023-05-11T05:40:38;95525.78;;;9.32;68.48
7754;BME280;3921;42.266;23.122;2023-05-11T05:43:06;95677.13;;;10.34;68.94
7754;BME280;3921;42.266;23.122;2023-05-11T05:45:33;95753.19;;;10.93;68.71
7754;BME280;3921;42.266;23.122;2023-05-11T05:48:00;95603.47;;;10.15;68.40
7754;BME280;3921;42.266;23.122;2023-05-11T05:50:27;95804.19;;;11.34;68.32
7754;BME280;3921;42.266;23.122;2023-05-11T05:52:54;95597.63;;;10.07;68.45
7754;BME280;3921;42.266;23.122;2023-05-11T05:55:21;95611.00;;;10.23;68.33
7754;BME280;3921;42.266;23.122;2023-05-11T05:57:48;95733.94;;;10.92;68.12
7754;BME280;3921;42.266;23.122;2023-05-11T06:00:17;95748.09;;;11.06;68.13
7754;BME280;3921;42.266;23.122;2023-05-11T06:02:44;95553.34;;;9.72;67.54
7754;BME280;3921;42.266;23.122;2023-05-11T06:05:11;95726.44;;;10.72;67.56
7754;BME280;3921;42.266;23.122;2023-05-11T06:07:38;95842.69;;;11.56;67.87
7754;BME280;3921;42.266;23.122;2023-05-11T06:10:14;95625.22;;;10.15;67.64
7754;BME280;3921;42.266;23.122;2023-05-11T06:12:58;95810.91;;;11.31;68.02
7754;BME280;3921;42.266;23.122;2023-05-11T06:15:26;95669.56;;;10.35;68.15
7754;BME280;3921;42.266;23.122;2023-05-11T06:17:59;95878.75;;;11.57;68.06
7754;BME280;3921;42.266;23.122;2023-05-11T06:20:30;95771.66;;;10.82;67.81
7754;BME280;3921;42.266;23.122;2023-05-11T06:23:03;95443.91;;;9.05;67.95
7754;BME280;3921;42.266;23.122;2023-05-11T06:25:32;95827.66;;;11.33;67.81
7754;BME280;3921;42.266;23.122;2023-05-11T06:27:59;95828.53;;;11.23;67.59
7754;BME280;3921;42.266;23.122;2023-05-11T06:30:28;95642.78;;;10.19;67.61
7754;BME280;3921;42.266;23.122;2023-05-11T06:32:55;95944.09;;;11.96;68.17
7754;BME280;3921;42.266;23.122;2023-05-11T06:35:22;95480.69;;;9.29;67.57
7754;BME280;3921;42.266;23.122;2023-05-11T06:37:49;95621.03;;;10.20;67.57
7754;BME280;3921;42.266;23.122;2023-05-11T06:40:18;95570.06;;;9.87;67.97
7754;BME280;3921;42.266;23.122;2023-05-11T06:42:45;95555.00;;;9.73;68.01
7754;BME280;3921;42.266;23.122;2023-05-11T06:45:12;95667.06;;;10.42;67.66
7754;BME280;3921;42.266;23.122;2023-05-11T06:47:40;95846.00;;;11.67;67.46
7754;BME280;3921;42.266;23.122;2023-05-11T06:50:07;95856.94;;;11.60;67.55
7754;BME280;3921;42.266;23.122;2023-05-11T06:52:35;95815.91;;;11.41;67.71
7754;BME280;3921;42.266;23.122;2023-05-11T06:55:02;95815.91;;;11.41;67.31
7754;BME280;3921;42.266;23.122;2023-05-11T06:57:29;95912.13;;;12.08;67.43
7754;BME280;3921;42.266;23.122;2023-05-11T06:59:56;95537.50;;;9.52;67.33
7754;BME280;3921;42.266;23.122;2023-05-11T07:02:23;95827.59;;;11.52;67.73
7754;BME280;3921;42.266;23.122;2023-05-11T07:04:51;95617.69;;;10.30;68.10
7754;BME280;3921;42.266;23.122;2023-05-11T07:07:18;95635.28;;;10.33;67.68
7754;BME280;3921;42.266;23.122;2023-05-11T07:09:48;95529.09;;;9.67;67.17
7754;BME280;3921;42.266;23.122;2023-05-11T07:12:15;95863.56;;;11.84;67.18
7754;BME280;3921;42.266;23.122;2023-05-11T07:14:42;95903.66;;;12.26;66.89
7754;BME280;3921;42.266;23.122;2023-05-11T07:17:09;95677.00;;;10.77;67.03
7754;BME280;3921;42.266;23.122;2023-05-11T07:19:35;95552.47;;;9.90;67.71
7754;BME280;3921;42.266;23.122;2023-05-11T07:22:06;95793.28;;;11.29;68.11
7754;BME280;3921;42.266;23.122;2023-05-11T07:24:33;95656.19;;;10.35;67.88
7754;BME280;3921;42.266;23.122;2023-05-11T07:27:00;95871.13;;;11.75;68.08
7754;BME280;3921;42.266;23.122;2023-05-11T07:29:27;95955.78;;;12.13;67.62
7754;BME280;3921;42.266;23.122;2023-05-11T07:31:54;95918.94;;;11.93;68.35
7754;BME280;3921;42.266;23.122;2023-05-11T07:34:21;95761.50;;;11.16;67.71
7754;BME280;3921;42.266;23.122;2023-05-11T07:36:49;95921.38;;;12.04;68.27
7754;BME280;3921;42.266;23.122;2023-05-11T07:39:17;95442.25;;;8.98;68.65
7754;BME280;3921;42.266;23.122;2023-05-11T07:41:44;95714.69;;;10.81;68.42
7754;BME280;3921;42.266;23.122;2023-05-11T07:44:11;95897.09;;;11.92;68.30
7754;BME280;3921;42.266;23.122;2023-05-11T07:46:38;95723.91;;;10.82;68.55
7754;BME280;3921;42.266;23.122;2023-05-11T07:49:05;95669.53;;;10.52;67.83
7754;BME280;3921;42.266;23.122;2023-05-11T07:51:33;95846.91;;;11.53;68.28
7754;BME280;3921;42.266;23.122;2023-05-11T07:54:00;95925.56;;;12.16;68.03
7754;BME280;3921;42.266;23.122;2023-05-11T07:56:28;95938.16;;;12.13;68.57
7754;BME280;3921;42.266;23.122;2023-05-11T07:58:55;95784.13;;;11.19;68.21
7754;BME280;3921;42.266;23.122;2023-05-11T08:01:22;95798.38;;;11.22;68.74
7754;BME280;3921;42.266;23.122;2023-05-11T08:03:49;95815.88;;;11.44;67.77
7754;BME280;3921;42.266;23.122;2023-05-11T08:06:16;95461.44;;;9.16;68.64
7754;BME280;3921;42.266;23.122;2023-05-11T08:08:43;95708.03;;;10.65;68.16
7754;BME280;3921;42.266;23.122;2023-05-11T08:11:10;95765.69;;;11.11;68.57
7754;BME280;3921;42.266;23.122;2023-05-11T08:13:38;95626.09;;;10.27;68.87
7754;BME280;3921;42.266;23.122;2023-05-11T08:16:06;95901.25;;;11.98;69.16
7754;BME280;3921;42.266;23.122;2023-05-11T08:18:33;95924.66;;;12.20;68.60
7754;BME280;3921;42.266;23.122;2023-05-11T08:21:00;95902.91;;;12.04;68.99
7754;BME280;3921;42.266;23.122;2023-05-11T08:23:27;95618.47;;;10.43;68.40
7754;BME280;3921;42.266;23.122;2023-05-11T08:25:54;95848.47;;;11.77;68.94
7754;BME280;3921;42.266;23.122;2023-05-11T08:28:21;95889.44;;;12.12;69.03
7754;BME280;3921;42.266;23.122;2023-05-11T08:30:54;95924.59;;;12.32;68.80
7754;BME280;3921;42.266;23.122;2023-05-11T08:33:21;95692.94;;;10.70;68.10
7754;BME280;3921;42.266;23.122;2023-05-11T08:35:48;95523.22;;;9.81;67.97
7754;BME280;3921;42.266;23.122;2023-05-11T08:38:15;95959.09;;;12.24;68.95
7754;BME280;3921;42.266;23.122;2023-05-11T08:40:43;95779.84;;;11.35;68.19
7754;BME280;3921;42.266;23.122;2023-05-11T08:43:12;95933.00;;;12.31;68.75
7754;BME280;3921;42.266;23.122;2023-05-11T08:45:41;95912.91;;;12.19;68.75
7754;BME280;3921;42.266;23.122;2023-05-11T08:48:10;95646.06;;;10.61;68.44
7754;BME280;3921;42.266;23.122;2023-05-11T08:50:37;95854.31;;;11.89;68.93
7754;BME280;3921;42.266;23.122;2023-05-11T08:53:04;95639.38;;;10.61;68.58
7754;BME280;3921;42.266;23.122;2023-05-11T08:55:32;95622.66;;;10.50;68.78
7754;BME280;3921;42.266;23.122;2023-05-11T08:58:02;95479.75;;;9.67;69.07
7754;BME280;3921;42.266;23.122;2023-05-11T09:00:31;95840.09;;;11.82;68.68
7754;BME280;3921;42.266;23.122;2023-05-11T09:02:58;95633.47;;;10.70;68.95
7754;BME280;3921;42.266;23.122;2023-05-11T09:05:27;95672.75;;;10.89;67.77
7754;BME280;3921;42.266;23.122;2023-05-11T09:07:59;95767.22;;;11.53;68.35
7754;BME280;3921;42.266;23.122;2023-05-11T09:10:26;95629.28;;;10.66;68.67
7754;BME280;3921;42.266;23.122;2023-05-11T09:12:53;95706.25;;;11.02;68.62
7754;BME280;3921;42.266;23.122;2023-05-11T09:15:20;95783.09;;;11.63;68.86
7754;BME280;3921;42.266;23.122;2023-05-11T09:17:47;95823.22;;;11.92;69.55
7754;BME280;3921;42.266;23.122;2023-05-11T09:20:14;95804.00;;;11.74;69.25
7754;BME280;3921;42.266;23.122;2023-05-11T09:22:44;95828.31;;;11.87;68.66
7754;BME280;3921;42.266;23.122;2023-05-11T09:25:12;95698.63;;;11.16;68.93
7754;BME280;3921;42.266;23.122;2023-05-11T09:27:41;95750.50;;;11.35;68.86
7754;BME280;3921;42.266;23.122;2023-05-11T09:30:13;95630.97;;;10.59;69.10
7754;BME280;3921;42.266;23.122;2023-05-11T09:32:49;95791.44;;;11.69;69.48
7754;BME280;3921;42.266;23.122;2023-05-11T09:35:23;95803.97;;;11.80;69.71
7754;BME280;3921;42.266;23.122;2023-05-11T09:38:00;95897.72;;;12.33;70.21
7754;BME280;3921;42.266;23.122;2023-05-11T09:40:29;95895.16;;;12.42;69.71
7754;BME280;3921;42.266;23.122;2023-05-11T09:42:56;95792.22;;;11.81;69.34
7754;BME280;3921;42.266;23.122;2023-05-11T09:45:37;95785.53;;;11.81;69.12
7754;BME280;3921;42.266;23.122;2023-05-11T09:48:05;95819.81;;;12.07;69.17
7754;BME280;3921;42.266;23.122;2023-05-11T09:50:33;95722.75;;;11.55;69.02
7754;BME280;3921;42.266;23.122;2023-05-11T09:53:02;95779.59;;;11.91;69.62
7754;BME280;3921;42.266;23.122;2023-05-11T09:55:29;95493.78;;;10.20;69.40
7754;BME280;3921;42.266;23.122;2023-05-11T09:57:57;95421.16;;;9.87;68.60
7754;BME280;3921;42.266;23.122;2023-05-11T10:00:24;95745.22;;;11.86;69.12
7754;BME280;3921;42.266;23.122;2023-05-11T10:02:58;95863.94;;;12.63;69.92
7754;BME280;3921;42.266;23.122;2023-05-11T10:05:26;95577.28;;;10.80;69.27
7754;BME280;3921;42.266;23.122;2023-05-11T10:07:55;95733.50;;;11.77;69.59
7754;BME280;3921;42.266;23.122;2023-05-11T10:10:25;95496.28;;;10.34;69.41
7754;BME280;3921;42.266;23.122;2023-05-11T10:12:54;95625.63;;;11.27;68.90
7754;BME280;3921;42.266;23.122;2023-05-11T10:15:22;95790.25;;;12.30;70.28
7754;BME280;3921;42.266;23.122;2023-05-11T10:17:52;95770.94;;;12.26;70.12
7754;BME280;3921;42.266;23.122;2023-05-11T10:20:20;95693.19;;;11.86;69.67
7754;BME280;3921;42.266;23.122;2023-05-11T10:22:50;95550.38;;;10.98;69.71
7754;BME280;3921;42.266;23.122;2023-05-11T10:25:20;95572.84;;;11.21;70.14
7754;BME280;3921;42.266;23.122;2023-05-11T10:27:50;95836.00;;;12.86;70.01
7754;BME280;3921;42.266;23.122;2023-05-11T10:30:17;95593.66;;;11.44;69.26
7754;BME280;3921;42.266;23.122;2023-05-11T10:32:44;95873.63;;;13.06;69.16
7754;BME280;3921;42.266;23.122;2023-05-11T10:35:12;95423.47;;;10.34;68.40
7754;BME280;3921;42.266;23.122;2023-05-11T10:37:39;95857.63;;;13.10;68.27
7754;BME280;3921;42.266;23.122;2023-05-11T10:40:11;95314.97;;;9.81;67.17
7754;BME280;3921;42.266;23.122;2023-05-11T10:42:59;95692.06;;;12.19;67.06
7754;BME280;3921;42.266;23.122;2023-05-11T10:45:36;95570.16;;;11.45;67.39
7754;BME280;3921;42.266;23.122;2023-05-11T10:48:32;95846.69;;;13.11;68.11
7754;BME280;3921;42.266;23.122;2023-05-11T10:51:15;95801.56;;;12.79;68.12
7754;BME280;3921;42.266;23.122;2023-05-11T10:54:03;95850.00;;;13.14;67.18
7754;BME280;3921;42.266;23.122;2023-05-11T10:56:51;95783.28;;;12.60;67.40
7754;BME280;3921;42.266;23.122;2023-05-11T11:02:37;95836.53;;;13.15;67.59
7754;BME280;3921;42.266;23.122;2023-05-11T11:05:04;95409.19;;;10.37;67.62
7754;BME280;3921;42.266;23.122;2023-05-11T11:07:55;95606.78;;;11.78;67.25
7754;BME280;3921;42.266;23.122;2023-05-11T11:10:31;95562.63;;;11.43;67.04
7754;BME280;3921;42.266;23.122;2023-05-11T11:13:04;95606.81;;;11.74;67.57
7754;BME280;3921;42.266;23.122;2023-05-11T11:16:08;95841.53;;;13.20;67.28
7754;BME280;3921;42.266;23.122;2023-05-11T11:18:37;95743.78;;;12.59;67.54
7754;BME280;3921;42.266;23.122;2023-05-11T11:21:04;95689.50;;;12.26;67.81
7754;BME280;3921;42.266;23.122;2023-05-11T11:23:45;95860.91;;;13.19;66.74
7754;BME280;3921;42.266;23.122;2023-05-11T11:26:17;95816.47;;;13.01;67.32
7754;BME280;3921;42.266;23.122;2023-05-11T11:29:10;95834.03;;;13.15;67.18
7754;BME280;3921;42.266;23.122;2023-05-11T11:31:37;95832.38;;;13.11;66.68
7754;BME280;3921;42.266;23.122;2023-05-11T11:37:12;95845.81;;;13.13;66.61
7754;BME280;3921;42.266;23.122;2023-05-11T11:39:49;95773.09;;;12.70;67.10
7754;BME280;3921;42.266;23.122;2023-05-11T11:42:30;95683.63;;;12.25;67.08
7754;BME280;3921;42.266;23.122;2023-05-11T11:45:25;95787.13;;;12.94;66.83
7754;BME280;3921;42.266;23.122;2023-05-11T11:48:20;95583.31;;;11.76;66.56
7754;BME280;3921;42.266;23.122;2023-05-11T11:50:48;95794.78;;;12.88;67.17
7754;BME280;3921;42.266;23.122;2023-05-11T11:56:39;95824.72;;;13.22;66.46
7754;BME280;3921;42.266;23.122;2023-05-11T11:59:06;95550.81;;;11.50;66.44
7754;BME280;3921;42.266;23.122;2023-05-11T12:01:36;95810.53;;;13.10;66.93
7754;BME280;3921;42.266;23.122;2023-05-11T12:04:38;95817.13;;;13.23;66.13
7754;BME280;3921;42.266;23.122;2023-05-11T12:07:10;95545.69;;;11.61;65.82
7754;BME280;3921;42.266;23.122;2023-05-11T12:09:44;95534.06;;;11.46;65.51
7754;BME280;3921;42.266;23.122;2023-05-11T12:12:16;95384.69;;;10.73;66.23
7754;BME280;3921;42.266;23.122;2023-05-11T12:14:44;95489.00;;;11.23;66.48
7754;BME280;3921;42.266;23.122;2023-05-11T12:17:14;95808.69;;;13.24;66.89
7754;BME280;3921;42.266;23.122;2023-05-11T12:19:42;95517.41;;;11.37;66.82
7754;BME280;3921;42.266;23.122;2023-05-11T12:22:10;95660.03;;;12.35;67.17
7754;BME280;3921;42.266;23.122;2023-05-11T12:24:39;95543.13;;;11.67;66.51
7754;BME280;3921;42.266;23.122;2023-05-11T12:27:06;95736.22;;;12.62;66.46
7754;BME280;3921;42.266;23.122;2023-05-11T12:29:35;95652.63;;;12.18;66.21
7754;BME280;3921;42.266;23.122;2023-05-11T12:32:03;95699.22;;;12.64;66.53
7754;BME280;3921;42.266;23.122;2023-05-11T12:34:30;95653.25;;;12.40;66.63
7754;BME280;3921;42.266;23.122;2023-05-11T12:37:09;95522.34;;;11.48;66.59
7754;BME280;3921;42.266;23.122;2023-05-11T12:39:36;95314.56;;;10.41;66.92
7754;BME280;3921;42.266;23.122;2023-05-11T12:42:04;95696.56;;;12.76;66.19
7754;BME280;3921;42.266;23.122;2023-05-11T12:44:31;95806.06;;;13.35;67.13
7754;BME280;3921;42.266;23.122;2023-05-11T12:47:00;95689.91;;;12.69;66.86
7754;BME280;3921;42.266;23.122;2023-05-11T12:49:27;95787.59;;;13.33;65.89
7754;BME280;3921;42.266;23.122;2023-05-11T12:52:02;95582.19;;;12.11;66.18
7754;BME280;3921;42.266;23.122;2023-05-11T12:54:34;95323.66;;;10.54;66.06
7754;BME280;3921;42.266;23.122;2023-05-11T12:57:03;95270.44;;;10.09;65.80
7754;BME280;3921;42.266;23.122;2023-05-11T12:59:34;95618.03;;;12.36;65.38
7754;BME280;3921;42.266;23.122;2023-05-11T13:02:11;95355.41;;;10.64;65.66
7754;BME280;3921;42.266;23.122;2023-05-11T13:04:40;95661.41;;;12.61;64.91
7754;BME280;3921;42.266;23.122;2023-05-11T13:07:07;95392.78;;;11.03;64.78
7754;BME280;3921;42.266;23.122;2023-05-11T13:09:34;95308.59;;;10.54;64.94
7754;BME280;3921;42.266;23.122;2023-05-11T13:12:09;95316.19;;;10.50;64.94
7754;BME280;3921;42.266;23.122;2023-05-11T13:14:37;95199.53;;;9.81;64.63
7754;BME280;3921;42.266;23.122;2023-05-11T13:17:10;95724.00;;;13.03;64.78
7754;BME280;3921;42.266;23.122;2023-05-11T13:19:46;95754.88;;;13.24;64.74
7754;BME280;3921;42.266;23.122;2023-05-11T13:22:13;95512.88;;;11.73;65.16
7754;BME280;3921;42.266;23.122;2023-05-11T13:24:40;95559.59;;;12.05;65.19
7754;BME280;3921;42.266;23.122;2023-05-11T13:27:07;95330.22;;;10.74;65.52
7754;BME280;3921;42.266;23.122;2023-05-11T13:29:34;95546.06;;;12.12;65.22
7754;BME280;3921;42.266;23.122;2023-05-11T13:32:01;95349.34;;;10.87;65.20
7754;BME280;3921;42.266;23.122;2023-05-11T13:34:30;95756.41;;;13.39;65.63
7754;BME280;3921;42.266;23.122;2023-05-11T13:36:56;95758.91;;;13.39;64.96
7754;BME280;3921;42.266;23.122;2023-05-11T13:39:23;95602.84;;;12.42;65.07